Time;durP1;ratioP1;P1;durP2;ratioP2;P2;SDS_P1;SDS_P2;PMS_P1;PMS_P2;Temp;Humidity;BMP_temperature;BMP_pressure;BME280_temperature;BME280_humidity;BME280_pressure;Samples;Min_cycle;Max_cycle;Signal;HPM_P1;HPM_P2
2022/12/11 00:01:16;;;;;;;31.73;19.73;;;;;;;1.00;79.65;99387.00;5098659;27;20280;-81
2022/12/11 00:03:42;;;;;;;36.65;18.55;;;;;;;1.21;80.00;99377.03;5099741;28;20397;-81
2022/12/11 00:06:10;;;;;;;52.20;22.27;;;;;;;1.44;79.00;99379.25;5099782;28;20039;-81
2022/12/11 00:08:36;;;;;;;36.13;20.63;;;;;;;1.67;77.87;99383.25;5098719;28;20024;-81
2022/12/11 00:11:02;;;;;;;43.88;25.00;;;;;;;1.52;78.76;99380.84;5099429;28;20043;-81
2022/12/11 00:13:27;;;;;;;49.67;22.40;;;;;;;1.64;78.62;99375.63;5099412;28;20040;-81
2022/12/11 00:15:53;;;;;;;41.60;23.30;;;;;;;1.50;79.06;99372.19;5100114;28;20075;-81
2022/12/11 00:18:18;;;;;;;40.38;23.42;;;;;;;1.51;78.76;99374.66;5097308;28;20169;-82
2022/12/11 00:20:43;;;;;;;48.72;23.20;;;;;;;1.55;78.60;99379.56;5097362;28;20048;-81
2022/12/11 00:23:09;;;;;;;41.97;21.42;;;;;;;1.62;79.05;99375.84;5098617;28;20039;-81
2022/12/11 00:25:40;;;;;;;42.03;22.02;;;;;;;1.50;79.08;99383.75;5115864;27;20392;-80
2022/12/11 00:28:05;;;;;;;39.20;22.55;;;;;;;1.55;78.56;99379.56;5098022;28;20038;-81
2022/12/11 00:30:30;;;;;;;42.75;22.90;;;;;;;1.39;79.54;99384.41;5100147;28;20036;-81
2022/12/11 00:32:55;;;;;;;45.47;20.53;;;;;;;1.54;79.28;99391.38;5099906;28;20031;-81
2022/12/11 00:35:21;;;;;;;42.33;23.43;;;;;;;1.50;78.82;99391.81;5098958;28;20369;-81
2022/12/11 00:37:46;;;;;;;45.33;24.27;;;;;;;1.38;79.41;99390.84;5097726;28;20261;-81
2022/12/11 00:40:11;;;;;;;38.07;22.67;;;;;;;1.54;79.18;99396.75;5099506;28;20062;-81
2022/12/11 00:42:36;;;;;;;43.90;21.17;;;;;;;1.61;78.26;99386.78;5099254;28;20795;-81
2022/12/11 00:45:02;;;;;;;41.40;22.23;;;;;;;1.69;78.17;99385.72;5098968;28;20337;-80
2022/12/11 00:47:28;;;;;;;36.40;21.17;;;;;;;1.54;78.68;99389.53;5098763;28;20252;-81
2022/12/11 00:49:53;;;;;;;52.07;23.50;;;;;;;1.49;79.02;99390.16;5097808;28;20030;-81
2022/12/11 00:52:18;;;;;;;44.23;23.93;;;;;;;1.48;79.28;99391.22;5098285;28;20297;-81
2022/12/11 00:54:44;;;;;;;42.37;23.47;;;;;;;1.47;79.76;99389.53;5098880;28;20331;-81
2022/12/11 00:57:09;;;;;;;47.85;24.33;;;;;;;1.43;79.69;99387.50;5100169;28;20272;-81
2022/12/11 00:59:34;;;;;;;41.37;23.47;;;;;;;1.43;79.94;99390.19;5098325;28;20059;-81
2022/12/11 01:01:59;;;;;;;43.10;21.87;;;;;;;1.49;79.38;99387.47;5097758;28;20276;-81
2022/12/11 01:04:25;;;;;;;44.08;22.27;;;;;;;1.48;78.65;99380.47;5096911;28;20265;-81
2022/12/11 01:06:50;;;;;;;42.13;24.50;;;;;;;1.65;78.81;99379.13;5098698;28;20529;-81
2022/12/11 01:11:59;;;;;;;38.92;21.45;;;;;;;1.51;79.19;99384.56;5103179;28;20101;-82
2022/12/11 01:14:25;;;;;;;47.10;23.73;;;;;;;1.74;78.13;99375.97;5101735;28;20048;-80
2022/12/11 01:16:50;;;;;;;45.83;23.35;;;;;;;1.86;78.11;99375.28;5102780;28;20726;-82
2022/12/11 01:19:15;;;;;;;36.97;23.17;;;;;;;1.39;79.87;99370.97;5100654;28;20441;-81
2022/12/11 01:21:41;;;;;;;44.30;22.27;;;;;;;1.60;79.04;99366.34;5102774;28;20280;-81
2022/12/11 01:24:06;;;;;;;50.78;23.83;;;;;;;1.57;79.03;99366.75;5101890;28;20458;-81
2022/12/11 01:26:31;;;;;;;42.42;22.88;;;;;;;1.60;79.18;99371.72;5102443;28;20024;-81
2022/12/11 01:28:56;;;;;;;43.08;23.00;;;;;;;1.62;79.66;99369.63;5101802;28;20087;-81
2022/12/11 01:31:22;;;;;;;40.70;22.65;;;;;;;1.72;78.87;99364.63;5101496;28;20056;-81
2022/12/11 01:33:48;;;;;;;49.78;23.30;;;;;;;1.85;78.18;99365.59;5101982;28;20204;-81
2022/12/11 01:36:18;;;;;;;47.25;25.25;;;;;;;1.70;78.99;99363.19;5118942;27;20063;-81
2022/12/11 01:38:45;;;;;;;40.63;22.30;;;;;;;1.92;77.98;99366.34;5102147;27;20462;-82
2022/12/11 01:41:10;;;;;;;53.78;25.17;;;;;;;1.69;79.49;99370.41;5102401;28;20104;-81
2022/12/11 01:43:59;;;;;;;45.13;23.42;;;;;;;1.58;79.70;99371.94;5102515;28;20426;-81
2022/12/11 01:46:25;;;;;;;47.40;23.27;;;;;;;1.76;79.82;99378.44;5101292;28;20036;-81
2022/12/11 01:48:51;;;;;;;43.88;21.90;;;;;;;1.75;78.95;99368.72;5102150;28;20027;-82
2022/12/11 01:51:16;;;;;;;48.60;24.48;;;;;;;1.76;79.08;99370.38;5102345;28;20032;-81
2022/12/11 01:53:49;;;;;;;47.03;23.55;;;;;;;1.86;78.94;99368.03;5101797;28;20038;-81
2022/12/11 01:56:15;;;;;;;55.67;23.55;;;;;;;1.81;79.47;99367.06;5100798;28;20046;-82
2022/12/11 01:58:50;;;;;;;53.83;26.00;;;;;;;1.68;80.13;99368.78;5102553;28;20020;-81
2022/12/11 02:01:29;;;;;;;45.28;22.60;;;;;;;1.63;80.70;99371.28;5102042;27;20028;-81
2022/12/11 02:03:55;;;;;;;57.17;28.25;;;;;;;1.57;80.37;99375.66;5100866;28;20031;-81
2022/12/11 02:06:48;;;;;;;66.22;29.98;;;;;;;1.59;80.62;99365.50;5101092;28;20507;-81
2022/12/11 02:09:16;;;;;;;77.60;30.02;;;;;;;1.55;80.71;99368.81;5096798;28;20047;-81
2022/12/11 02:12:06;;;;;;;71.15;32.72;;;;;;;1.59;80.04;99361.97;5100997;28;20040;-81
2022/12/11 02:14:43;;;;;;;59.90;29.20;;;;;;;1.79;80.14;99363.75;5100505;28;20050;-81
2022/12/11 02:17:24;;;;;;;65.00;26.90;;;;;;;1.80;81.38;99360.00;5099218;28;20085;-80
2022/12/11 02:19:58;;;;;;;57.47;28.25;;;;;;;1.58;81.48;99361.19;5101063;28;20052;-81
2022/12/11 02:22:32;;;;;;;56.77;28.63;;;;;;;1.80;80.83;99360.00;5100616;28;20031;-81
2022/12/11 02:25:19;;;;;;;51.08;29.10;;;;;;;1.81;80.13;99356.31;5100118;28;20272;-80
2022/12/11 02:27:52;;;;;;;71.40;31.20;;;;;;;1.98;79.86;99362.78;5100877;28;20459;-81
2022/12/11 02:30:17;;;;;;;60.85;27.15;;;;;;;1.93;80.42;99354.53;5101671;28;20031;-81
2022/12/11 02:32:56;;;;;;;66.40;30.98;;;;;;;1.89;80.71;99358.72;5100404;28;20028;-81
2022/12/11 02:35:43;;;;;;;55.05;29.45;;;;;;;1.70;80.98;99350.56;5099273;28;20040;-81
2022/12/11 02:38:20;;;;;;;55.78;27.80;;;;;;;1.74;81.74;99356.34;5099410;28;20103;-82
2022/12/11 02:40:50;;;;;;;65.70;33.40;;;;;;;1.74;81.26;99357.16;5099802;28;20039;-82
2022/12/11 02:43:18;;;;;;;52.13;29.50;;;;;;;1.89;81.19;99358.72;5099179;28;20027;-82
2022/12/11 02:45:45;;;;;;;56.30;30.88;;;;;;;1.87;80.46;99355.44;5099863;28;20039;-82
2022/12/11 02:48:13;;;;;;;56.30;31.20;;;;;;;1.95;80.43;99357.84;5098702;28;20027;-82
2022/12/11 02:50:44;;;;;;;54.22;29.77;;;;;;;1.88;81.05;99357.06;5100719;28;20028;-82
2022/12/11 02:53:12;;;;;;;60.15;27.00;;;;;;;1.81;81.16;99351.72;5099927;28;20081;-81
2022/12/11 02:55:41;;;;;;;54.78;28.45;;;;;;;1.80;80.62;99339.34;5101278;28;20063;-82
2022/12/11 02:58:13;;;;;;;63.95;29.10;;;;;;;1.77;80.82;99345.13;5100294;28;20468;-82
2022/12/11 03:00:39;;;;;;;72.60;29.48;;;;;;;1.82;81.11;99342.63;5100576;28;20564;-80
2022/12/11 03:03:04;;;;;;;59.13;28.02;;;;;;;1.96;80.20;99337.16;5100590;28;20127;-81
2022/12/11 03:05:29;;;;;;;54.63;29.10;;;;;;;1.89;80.23;99345.28;5101010;28;20031;-82
2022/12/11 03:07:55;;;;;;;64.55;25.83;;;;;;;1.88;79.90;99340.94;5100422;28;20374;-82
2022/12/11 03:10:21;;;;;;;53.20;28.33;;;;;;;1.78;80.50;99336.03;5100611;28;20031;-82
2022/12/11 03:12:51;;;;;;;64.53;29.02;;;;;;;1.60;81.33;99336.78;5100241;28;20130;-82
2022/12/11 03:15:19;;;;;;;67.43;31.77;;;;;;;1.58;80.85;99333.47;5098741;28;20039;-82
2022/12/11 03:18:02;;;;;;;54.97;30.55;;;;;;;1.75;80.77;99337.28;5100649;28;20051;-82
2022/12/11 03:20:36;;;;;;;62.67;29.58;;;;;;;1.87;80.09;99333.94;5099809;28;20039;-82
2022/12/11 03:23:15;;;;;;;65.20;29.45;;;;;;;1.87;80.68;99336.63;5099464;28;20024;-82
2022/12/11 03:25:54;;;;;;;55.15;29.92;;;;;;;1.75;80.73;99333.78;5099320;28;20051;-81
2022/12/11 03:28:43;;;;;;;58.13;27.02;;;;;;;1.59;79.75;99337.81;5099902;28;20344;-81
2022/12/11 03:31:13;;;;;;;62.17;30.30;;;;;;;1.36;81.79;99329.22;5098290;28;20027;-80
2022/12/11 03:33:42;;;;;;;50.33;25.45;;;;;;;1.57;81.43;99345.25;5099834;28;20020;-80
2022/12/11 03:36:16;;;;;;;48.55;27.38;;;;;;;1.64;80.68;99335.31;5098826;28;20046;-81
2022/12/11 03:39:01;;;;;;;64.38;30.23;;;;;;;1.69;80.71;99337.34;5099961;28;20028;-80
2022/12/11 03:41:29;;;;;;;60.55;30.00;;;;;;;1.45;81.56;99339.75;5098319;28;20113;-81
2022/12/11 03:43:57;;;;;;;65.78;28.77;;;;;;;1.72;80.39;99343.13;5098832;28;20111;-81
2022/12/11 03:46:29;;;;;;;56.42;29.70;;;;;;;1.72;80.12;99336.91;5099568;28;20028;-81
2022/12/11 03:48:58;;;;;;;51.28;27.00;;;;;;;1.73;80.59;99339.38;5099834;28;20393;-81
2022/12/11 03:51:24;;;;;;;49.08;25.60;;;;;;;1.81;80.41;99340.16;5099016;28;20040;-81
2022/12/11 03:53:50;;;;;;;51.78;26.10;;;;;;;1.81;80.14;99338.28;5099453;27;20028;-81
2022/12/11 03:56:18;;;;;;;57.60;26.67;;;;;;;2.00;79.67;99341.06;5098574;28;20046;-81
2022/12/11 03:58:43;;;;;;;51.55;27.67;;;;;;;1.93;79.47;99333.03;5099424;28;20081;-81
2022/12/11 04:01:10;;;;;;;56.40;26.37;;;;;;;1.89;79.60;99342.59;5099406;28;20036;-80
2022/12/11 04:03:36;;;;;;;61.53;29.00;;;;;;;1.98;79.27;99341.28;5098043;28;20663;-80
2022/12/11 04:06:01;;;;;;;54.97;27.27;;;;;;;1.85;80.52;99336.00;5098262;28;20031;-80
2022/12/11 04:08:26;;;;;;;55.25;28.10;;;;;;;1.77;80.68;99336.25;5098248;28;20645;-81
2022/12/11 04:11:33;;;;;;;59.67;26.80;;;;;;;1.83;80.12;99341.56;5098635;28;20338;-80
2022/12/11 04:13:38;;;;;;;60.78;30.90;;;;;;;1.87;79.76;99336.63;5098899;28;20074;-81
2022/12/11 04:16:04;;;;;;;60.20;28.40;;;;;;;1.73;80.68;99343.91;5098192;28;20035;-80
2022/12/11 04:24:16;;;;;;;61.80;28.60;;;;;;;1.91;79.90;99339.69;5097862;28;20289;-80
2022/12/11 04:26:45;;;;;;;75.47;31.85;;;;;;;1.68;80.77;99341.91;5098715;28;20035;-81
2022/12/11 04:29:11;;;;;;;57.80;28.58;;;;;;;1.85;81.08;99330.63;5098049;28;20043;-80
2022/12/11 04:31:36;;;;;;;58.55;25.40;;;;;;;1.92;80.24;99333.25;5098477;28;20024;-81
2022/12/11 04:34:02;;;;;;;49.90;24.95;;;;;;;1.97;80.20;99328.84;5098480;28;20035;-81
2022/12/11 04:36:27;;;;;;;63.53;28.40;;;;;;;1.81;80.49;99334.78;5098695;28;20042;-80
2022/12/11 04:38:52;;;;;;;59.35;28.23;;;;;;;1.88;80.35;99335.56;5098098;28;20061;-80
2022/12/11 04:41:18;;;;;;;53.88;26.45;;;;;;;1.94;79.59;99331.16;5098416;28;20059;-80
2022/12/11 04:43:46;;;;;;;47.40;25.10;;;;;;;1.94;80.47;99333.84;5098711;28;20080;-80
2022/12/11 04:46:16;;;;;;;61.42;29.15;;;;;;;1.90;79.96;99333.47;5098035;28;20032;-81
2022/12/11 04:48:42;;;;;;;59.42;26.58;;;;;;;1.89;80.61;99336.38;5098824;28;20470;-81
2022/12/11 04:51:08;;;;;;;50.00;23.10;;;;;;;1.98;80.04;99327.84;5097824;28;20115;-82
2022/12/11 04:53:34;;;;;;;58.40;28.83;;;;;;;1.77;80.23;99333.56;5098238;28;20028;-81
2022/12/11 04:55:59;;;;;;;66.22;28.73;;;;;;;1.61;80.91;99331.19;5097645;28;20498;-82
2022/12/11 04:58:25;;;;;;;65.75;29.45;;;;;;;1.49;81.64;99330.22;5098168;28;20028;-82
2022/12/11 05:00:51;;;;;;;41.60;24.50;;;;;;;1.62;81.11;99332.00;5099290;28;20385;-82
2022/12/11 05:03:16;;;;;;;52.42;22.33;;;;;;;1.92;79.26;99326.00;5099198;28;20036;-82
2022/12/11 05:05:49;;;;;;;46.90;22.88;;;;;;;1.97;79.43;99328.84;5099416;28;20040;-82
2022/12/11 05:08:15;;;;;;;43.10;21.58;;;;;;;1.97;78.96;99326.16;5097507;28;20020;-81
2022/12/11 05:10:41;;;;;;;52.95;23.83;;;;;;;2.04;79.46;99319.91;5097475;28;20370;-81
2022/12/11 05:13:06;;;;;;;39.55;20.90;;;;;;;2.07;78.71;99322.19;5097488;28;20052;-81
2022/12/11 05:15:31;;;;;;;48.38;26.95;;;;;;;2.03;79.23;99321.81;5097532;28;20032;-81
2022/12/11 05:17:56;;;;;;;48.83;19.53;;;;;;;2.07;78.59;99317.63;5097545;28;20035;-81
2022/12/11 05:20:22;;;;;;;43.70;23.93;;;;;;;2.01;79.00;99318.50;5098755;28;20617;-82
2022/12/11 05:22:47;;;;;;;50.55;25.55;;;;;;;1.88;78.85;99316.75;5097996;28;20277;-81
2022/12/11 05:25:13;;;;;;;43.53;20.10;;;;;;;1.90;79.20;99311.97;5097517;28;20039;-81
2022/12/11 05:27:38;;;;;;;44.57;21.53;;;;;;;1.98;78.64;99321.63;5097985;28;20259;-82
2022/12/11 05:30:04;;;;;;;48.13;22.38;;;;;;;1.90;79.05;99311.97;5096799;28;20272;-82
2022/12/11 05:32:29;;;;;;;34.35;19.88;;;;;;;1.93;78.31;99311.50;5098383;28;20475;-82
2022/12/11 05:34:54;;;;;;;40.58;20.02;;;;;;;1.92;78.34;99311.75;5097579;28;20108;-81
2022/12/11 05:37:20;;;;;;;31.83;18.63;;;;;;;1.92;78.56;99315.25;5097958;28;20063;-81
2022/12/11 05:39:45;;;;;;;34.30;19.85;;;;;;;1.87;78.51;99315.09;5097695;28;20625;-81
2022/12/11 05:42:10;;;;;;;34.50;18.30;;;;;;;1.94;77.75;99313.19;5098043;28;20074;-81
2022/12/11 05:44:35;;;;;;;28.05;16.80;;;;;;;1.97;77.00;99312.72;5095851;28;20589;-81
2022/12/11 05:47:01;;;;;;;28.37;16.67;;;;;;;2.04;76.91;99311.84;5098244;28;20063;-81
2022/12/11 05:49:26;;;;;;;29.13;16.50;;;;;;;1.95;77.48;99304.06;5096787;28;20264;-82
2022/12/11 05:51:51;;;;;;;29.23;14.47;;;;;;;1.90;77.33;99311.97;5097945;28;20282;-81
2022/12/11 05:54:16;;;;;;;31.27;19.97;;;;;;;1.93;77.84;99311.50;5100505;28;20329;-81
2022/12/11 05:56:42;;;;;;;30.30;15.40;;;;;;;1.71;78.27;99314.56;5101825;28;20256;-81
2022/12/11 05:59:07;;;;;;;30.50;17.17;;;;;;;1.65;78.42;99314.63;5102719;28;20717;-81
2022/12/11 06:01:38;;;;;;;38.17;18.45;;;;;;;1.72;78.60;99316.22;5100283;28;20020;-81
2022/12/11 06:04:05;;;;;;;30.20;16.45;;;;;;;1.72;78.09;99305.47;5100294;28;20023;-81
2022/12/11 06:06:31;;;;;;;34.15;17.75;;;;;;;1.79;78.28;99310.00;5100362;28;20016;-81
2022/12/11 06:08:58;;;;;;;29.00;15.95;;;;;;;1.96;77.12;99307.56;5102255;28;20040;-81
2022/12/11 06:11:25;;;;;;;27.83;16.25;;;;;;;1.94;77.08;99307.81;5100193;28;20096;-81
2022/12/11 06:13:51;;;;;;;29.95;16.13;;;;;;;1.97;76.83;99301.16;5101632;28;20048;-81
2022/12/11 06:16:17;;;;;;;28.27;15.32;;;;;;;1.98;76.39;99303.63;5099605;28;20123;-81
2022/12/11 06:18:43;;;;;;;25.23;14.70;;;;;;;2.02;76.55;99293.25;5101970;27;20111;-81
2022/12/11 06:21:12;;;;;;;29.30;16.27;;;;;;;1.83;76.28;99295.06;5100331;28;20032;-81
2022/12/11 06:23:37;;;;;;;29.92;15.23;;;;;;;1.97;76.92;99291.22;5099431;28;20061;-81
2022/12/11 06:26:03;;;;;;;32.15;18.25;;;;;;;1.88;77.36;99297.09;5100149;28;20074;-81
2022/12/11 06:28:28;;;;;;;27.85;12.13;;;;;;;1.98;76.71;99290.19;5099426;28;20024;-81
2022/12/11 06:30:53;;;;;;;31.13;16.27;;;;;;;1.97;76.22;99296.59;5100517;28;20042;-81
2022/12/11 06:33:19;;;;;;;32.57;17.57;;;;;;;2.06;76.36;99289.09;5100668;28;20061;-81
2022/12/11 06:35:44;;;;;;;28.47;15.30;;;;;;;2.18;76.09;99299.13;5100813;28;20286;-81
2022/12/11 06:38:09;;;;;;;19.48;12.25;;;;;;;2.24;75.14;99292.06;5100454;28;20245;-81
2022/12/11 06:40:34;;;;;;;29.47;14.17;;;;;;;2.03;76.50;99296.78;5100712;28;20024;-81
2022/12/11 06:43:00;;;;;;;26.15;15.35;;;;;;;2.27;75.06;99299.66;5100939;28;20291;-81
2022/12/11 06:45:25;;;;;;;29.77;13.43;;;;;;;2.09;75.45;99293.22;5101153;28;20034;-82
2022/12/11 06:47:50;;;;;;;21.93;14.67;;;;;;;2.16;74.98;99293.97;5101920;28;20256;-81
2022/12/11 06:50:15;;;;;;;32.77;13.97;;;;;;;2.02;75.45;99304.00;5101080;28;20735;-81
2022/12/11 06:52:41;;;;;;;23.40;13.10;;;;;;;2.10;75.13;99305.59;5099784;28;20357;-81
2022/12/11 06:55:06;;;;;;;31.77;16.30;;;;;;;2.18;74.35;99304.50;5101131;28;20269;-81
2022/12/11 06:57:32;;;;;;;25.98;13.70;;;;;;;2.06;75.86;99312.47;5099393;28;20320;-81
2022/12/11 06:59:57;;;;;;;24.52;14.23;;;;;;;1.96;75.85;99311.09;5102385;28;20461;-81
2022/12/11 07:02:23;;;;;;;31.80;14.90;;;;;;;1.94;76.24;99306.97;5100142;28;20587;-81
2022/12/11 07:04:48;;;;;;;27.27;13.98;;;;;;;1.94;76.23;99310.50;5098762;28;20264;-81
2022/12/11 07:07:13;;;;;;;29.03;16.47;;;;;;;1.97;76.16;99304.66;5099715;28;20028;-81
2022/12/11 07:09:39;;;;;;;28.08;15.32;;;;;;;1.98;76.05;99303.63;5100198;28;20744;-81
2022/12/11 07:12:05;;;;;;;30.15;16.77;;;;;;;1.93;75.96;99295.38;5099321;28;20039;-81
2022/12/11 07:14:31;;;;;;;30.58;16.77;;;;;;;1.90;76.55;99305.75;5099756;28;20404;-81
2022/12/11 07:16:57;;;;;;;34.55;14.88;;;;;;;1.96;76.58;99308.41;5098737;28;20032;-81
2022/12/11 07:19:23;;;;;;;28.48;15.57;;;;;;;2.03;75.90;99304.84;5100750;28;20091;-81
2022/12/11 07:21:48;;;;;;;29.10;15.75;;;;;;;2.24;75.28;99308.19;5100074;28;20023;-81
2022/12/11 07:24:14;;;;;;;41.92;19.55;;;;;;;2.30;74.53;99316.19;5101073;28;20472;-80
2022/12/11 07:26:40;;;;;;;41.53;16.02;;;;;;;2.27;74.61;99315.81;5100018;28;20089;-81
2022/12/11 07:29:05;;;;;;;26.00;15.05;;;;;;;2.18;74.72;99317.94;5099197;28;20473;-81
2022/12/11 07:31:30;;;;;;;23.30;12.93;;;;;;;2.31;74.08;99317.00;5100027;28;20485;-81
2022/12/11 07:34:01;;;;;;;28.20;15.30;;;;;;;2.18;74.86;99318.78;5098531;28;20257;-82
2022/12/11 07:36:27;;;;;;;27.05;14.95;;;;;;;2.03;75.64;99315.59;5100260;28;20036;-82
2022/12/11 07:38:53;;;;;;;24.85;14.07;;;;;;;1.97;76.14;99310.03;5100038;28;20102;-82
2022/12/11 07:41:19;;;;;;;27.80;16.58;;;;;;;2.01;76.46;99305.06;5099909;28;20102;-82
2022/12/11 07:43:44;;;;;;;25.58;14.00;;;;;;;1.98;75.91;99313.56;5097384;28;20042;-84
2022/12/11 07:46:16;;;;;;;28.20;16.50;;;;;;;2.13;75.83;99309.72;5098709;28;20060;-82
2022/12/11 07:48:43;;;;;;;29.42;13.57;;;;;;;1.99;75.76;99315.22;5101260;28;20015;-82
2022/12/11 07:51:15;;;;;;;30.05;14.32;;;;;;;2.11;75.55;99318.03;5099863;28;20110;-81
2022/12/11 07:53:42;;;;;;;21.50;12.65;;;;;;;2.09;75.48;99314.72;5098572;28;20040;-82
2022/12/11 07:56:07;;;;;;;27.25;16.05;;;;;;;2.12;74.93;99308.91;5098906;28;20028;-82
2022/12/11 07:58:33;;;;;;;21.73;13.73;;;;;;;2.04;75.45;99306.47;5098946;28;20015;-82
2022/12/11 08:00:59;;;;;;;24.17;13.18;;;;;;;2.04;76.11;99306.47;5099064;28;20035;-82
2022/12/11 08:03:24;;;;;;;26.90;14.05;;;;;;;1.97;75.99;99309.22;5099012;28;20499;-81
2022/12/11 08:05:51;;;;;;;29.55;14.02;;;;;;;2.14;74.81;99311.34;5098830;28;20023;-82
2022/12/11 08:08:18;;;;;;;31.55;13.27;;;;;;;2.12;74.80;99316.97;5098724;28;20027;-82
2022/12/11 08:10:44;;;;;;;29.70;15.05;;;;;;;2.25;74.37;99315.22;5097942;28;20165;-82
2022/12/11 08:13:09;;;;;;;26.48;13.82;;;;;;;2.20;75.27;99323.94;5097094;28;20040;-82
2022/12/11 08:15:35;;;;;;;23.20;11.98;;;;;;;2.08;75.48;99316.59;5097058;28;20662;-82
2022/12/11 08:18:00;;;;;;;26.10;13.43;;;;;;;2.14;76.01;99319.41;5096897;28;20030;-82
2022/12/11 08:20:25;;;;;;;25.55;12.68;;;;;;;2.09;75.93;99318.25;5096755;28;20488;-81
2022/12/11 08:22:51;;;;;;;23.92;13.27;;;;;;;2.03;76.27;99315.59;5097320;28;20031;-82
2022/12/11 08:25:16;;;;;;;24.77;14.43;;;;;;;2.10;76.06;99310.97;5097514;28;20038;-82
2022/12/11 08:27:41;;;;;;;27.15;16.88;;;;;;;2.05;76.04;99314.34;5097555;28;20248;-82
2022/12/11 08:30:08;;;;;;;21.15;13.43;;;;;;;1.95;76.24;99320.19;5098862;28;20028;-82
2022/12/11 08:32:34;;;;;;;36.20;15.13;;;;;;;2.07;76.64;99316.81;5099814;28;20058;-82
2022/12/11 08:34:59;;;;;;;26.88;15.02;;;;;;;2.03;76.47;99315.59;5096684;28;20055;-81
2022/12/11 08:37:24;;;;;;;28.80;15.77;;;;;;;2.03;76.02;99315.59;5099121;28;20062;-81
2022/12/11 08:39:50;;;;;;;29.27;14.00;;;;;;;1.98;76.66;99314.38;5098962;28;20015;-82
2022/12/11 08:42:15;;;;;;;23.07;12.53;;;;;;;2.16;76.36;99318.16;5098928;28;20474;-82
2022/12/11 08:44:40;;;;;;;25.83;14.18;;;;;;;2.39;74.71;99316.75;5098360;28;20285;-82
2022/12/11 08:47:05;;;;;;;24.27;14.52;;;;;;;2.25;75.47;99307.13;5097877;28;20140;-82
2022/12/11 08:49:31;;;;;;;22.80;13.07;;;;;;;2.13;75.27;99313.25;5098560;28;20035;-82
2022/12/11 08:51:56;;;;;;;27.67;12.75;;;;;;;2.09;76.38;99306.66;5099952;28;20255;-82
2022/12/11 08:54:21;;;;;;;24.57;14.80;;;;;;;2.14;75.97;99300.59;5099565;28;20058;-82
2022/12/11 08:56:46;;;;;;;26.93;15.60;;;;;;;2.28;75.62;99306.72;5098978;28;20278;-82
2022/12/11 08:59:12;;;;;;;30.17;14.70;;;;;;;2.13;76.10;99307.88;5098801;28;20604;-82
2022/12/11 09:01:37;;;;;;;26.70;16.08;;;;;;;1.84;77.22;99302.09;5098883;28;20257;-82
2022/12/11 09:04:03;;;;;;;26.55;15.77;;;;;;;1.85;77.26;99309.13;5099380;28;20035;-82
2022/12/11 09:06:29;;;;;;;25.73;14.40;;;;;;;1.98;77.56;99308.19;5099012;28;20024;-82
2022/12/11 09:08:57;;;;;;;28.08;17.67;;;;;;;2.14;76.36;99309.50;5097743;28;20024;-82
2022/12/11 09:11:29;;;;;;;24.83;15.98;;;;;;;2.10;76.84;99313.66;5098679;28;20032;-82
2022/12/11 09:13:54;;;;;;;29.40;16.60;;;;;;;2.13;76.26;99315.94;5096693;28;20047;-82
2022/12/11 09:16:23;;;;;;;29.65;15.85;;;;;;;2.14;75.94;99317.56;5098865;28;20161;-82
2022/12/11 09:18:50;;;;;;;29.52;15.98;;;;;;;2.21;76.03;99312.13;5098305;28;20024;-82
2022/12/11 09:21:19;;;;;;;26.85;15.48;;;;;;;2.48;75.76;99316.47;5096937;28;20028;-82
2022/12/11 09:23:45;;;;;;;24.98;13.50;;;;;;;2.39;75.45;99324.81;5098740;28;20023;-82
2022/12/11 09:26:13;;;;;;;26.83;15.35;;;;;;;2.36;76.56;99317.16;5098107;28;20632;-80
2022/12/11 09:28:40;;;;;;;32.72;16.95;;;;;;;2.12;77.03;99316.97;5099406;28;20114;-80
2022/12/11 09:31:22;;;;;;;28.45;15.77;;;;;;;2.24;75.85;99318.97;5102937;28;20023;-80
2022/12/11 09:33:47;;;;;;;30.40;15.80;;;;;;;2.10;77.19;99313.66;5101809;28;20024;-79
2022/12/11 09:36:13;;;;;;;27.30;16.30;;;;;;;2.12;77.06;99319.66;5102495;28;20034;-80
2022/12/11 09:38:38;;;;;;;23.50;14.45;;;;;;;2.11;77.07;99323.41;5102195;28;20024;-79
2022/12/11 09:41:21;;;;;;;28.80;16.02;;;;;;;2.21;76.63;99315.66;5101577;28;20031;-79
2022/12/11 09:44:14;;;;;;;25.35;15.10;;;;;;;2.19;76.45;99309.69;5102308;28;20024;-80
2022/12/11 09:46:40;;;;;;;27.52;13.63;;;;;;;2.09;76.48;99307.47;5102032;28;20024;-80
2022/12/11 09:49:22;;;;;;;25.17;15.05;;;;;;;2.12;76.95;99319.66;5102661;28;20023;-79
2022/12/11 09:51:59;;;;;;;23.95;14.13;;;;;;;2.30;76.45;99312.66;5101168;28;20028;-80
2022/12/11 09:54:24;;;;;;;27.98;15.80;;;;;;;2.30;76.23;99300.03;5101005;28;20030;-80
2022/12/11 09:57:03;;;;;;;31.45;16.48;;;;;;;2.23;76.23;99310.06;5102217;28;20028;-80
2022/12/11 09:59:34;;;;;;;29.92;16.80;;;;;;;2.14;76.99;99304.13;5101808;28;20109;-80
2022/12/11 10:02:26;;;;;;;23.58;14.13;;;;;;;2.36;75.89;99316.38;5101949;28;20404;-80
2022/12/11 10:05:16;;;;;;;22.73;13.63;;;;;;;2.40;75.37;99310.28;5100868;28;20633;-80
2022/12/11 10:07:55;;;;;;;34.55;15.63;;;;;;;2.20;76.01;99307.78;5098715;28;20028;-80
2022/12/11 10:10:46;;;;;;;25.83;15.18;;;;;;;2.52;75.08;99307.69;5101025;28;20031;-80
2022/12/11 10:13:35;;;;;;;25.30;13.80;;;;;;;2.51;74.86;99297.16;5100829;28;20132;-80
2022/12/11 10:16:18;;;;;;;25.67;13.57;;;;;;;2.32;75.86;99295.25;5101755;28;20066;-80
2022/12/11 10:18:43;;;;;;;29.70;16.15;;;;;;;2.62;74.93;99295.59;5101279;28;20048;-80
2022/12/11 10:21:11;;;;;;;31.60;14.05;;;;;;;2.60;74.97;99282.38;5101582;28;20359;-80
2022/12/11 10:23:45;;;;;;;30.70;16.08;;;;;;;2.66;74.57;99286.03;5101178;28;20028;-80
2022/12/11 10:26:16;;;;;;;23.48;12.57;;;;;;;2.54;74.81;99277.88;5100283;28;20488;-79
2022/12/11 10:28:42;;;;;;;25.50;15.60;;;;;;;2.52;75.49;99279.97;5101632;28;20053;-80
2022/12/11 10:31:19;;;;;;;24.33;12.40;;;;;;;2.29;76.27;99279.56;5102322;28;20089;-79
2022/12/11 10:33:58;;;;;;;36.58;16.70;;;;;;;2.40;76.04;99285.28;5101191;28;20094;-80
2022/12/11 10:36:33;;;;;;;23.88;14.40;;;;;;;2.38;75.84;99288.16;5101644;28;20101;-80
2022/12/11 10:38:59;;;;;;;19.85;12.23;;;;;;;2.35;75.60;99275.16;5101077;28;20046;-80
2022/12/11 10:41:38;;;;;;;26.13;14.73;;;;;;;2.31;76.04;99280.19;5099204;28;20027;-80
2022/12/11 10:44:29;;;;;;;24.30;14.48;;;;;;;2.53;74.93;99274.38;5098787;28;20035;-80
2022/12/11 10:47:05;;;;;;;18.80;13.15;;;;;;;2.40;74.66;99282.59;5100898;28;20086;-80
2022/12/11 10:49:33;;;;;;;22.88;12.90;;;;;;;2.65;74.43;99266.38;5100413;28;20471;-80
2022/12/11 10:52:00;;;;;;;26.17;14.07;;;;;;;2.71;74.17;99266.50;5100135;28;20545;-80
2022/12/11 10:54:39;;;;;;;25.50;15.20;;;;;;;2.55;74.30;99269.59;5101268;28;20024;-80
2022/12/11 10:57:07;;;;;;;23.75;13.05;;;;;;;2.58;74.01;99268.31;5099496;28;20055;-80
2022/12/11 10:59:42;;;;;;;26.75;13.35;;;;;;;2.53;74.12;99265.47;5099363;28;20038;-80
2022/12/11 11:02:23;;;;;;;30.45;18.33;;;;;;;2.47;74.29;99260.97;5102434;28;20030;-80
2022/12/11 11:04:50;;;;;;;24.83;13.07;;;;;;;2.56;73.79;99265.81;5099587;28;20108;-80
2022/12/11 11:07:27;;;;;;;28.25;13.80;;;;;;;2.36;74.83;99267.94;5099131;28;20051;-80
2022/12/11 11:10:08;;;;;;;26.98;14.70;;;;;;;2.54;73.87;99267.91;5100428;28;20020;-80
2022/12/11 11:12:38;;;;;;;31.63;16.02;;;;;;;2.60;73.61;99254.63;5099768;28;20028;-81
2022/12/11 11:15:10;;;;;;;29.13;15.00;;;;;;;2.53;74.26;99265.47;5098958;28;20143;-80
2022/12/11 11:17:44;;;;;;;27.60;14.40;;;;;;;2.27;75.26;99265.53;5099231;28;20047;-80
2022/12/11 11:20:19;;;;;;;29.60;14.68;;;;;;;2.44;74.90;99276.50;5100501;28;20064;-80
2022/12/11 11:22:48;;;;;;;29.92;17.00;;;;;;;2.45;74.48;99264.72;5100990;28;20106;-80
2022/12/11 11:25:19;;;;;;;23.88;15.25;;;;;;;2.14;75.04;99262.94;5101339;28;20028;-80
2022/12/11 11:28:00;;;;;;;26.52;14.32;;;;;;;2.30;75.10;99258.84;5099245;28;20028;-80
2022/12/11 11:30:30;;;;;;;29.77;14.80;;;;;;;2.27;75.39;99259.31;5099759;28;20389;-80
2022/12/11 11:33:01;;;;;;;38.45;17.70;;;;;;;2.26;74.74;99245.03;5100047;28;20035;-80
2022/12/11 11:35:29;;;;;;;30.25;14.85;;;;;;;2.36;74.95;99244.50;5099858;28;20036;-80
2022/12/11 11:38:18;;;;;;;22.05;12.60;;;;;;;2.28;74.56;99240.25;5100165;28;20134;-80
2022/12/11 11:40:49;;;;;;;24.40;13.48;;;;;;;2.25;74.59;99245.25;5101016;28;20020;-80